Loxton, Australia
Current Conditions -  °F | °C
As of 2:00 AM on Sunday 23 Nov 2014 (Local Time) from YMIA Reporting Station
Clear Clear  
Wind Chill: 68°   Ceiling: Unl
Heat Index: 68°   Visibility: 6mi
Dew Point: 59°   Wind: 9mph
Humidity: 73%   Direction: 190°S
Pressure: 29.8"   Gusts: NA
Location:  34.45°S, 140.57°E
Report Text: YMIA 221600Z AUTO 19008KT 9999 // NCD 20/15 Q1009
Loading
Personal Weather Stations






























Interactive Weather Map New forecast layout! Learn more

10-Day Weather Forecast

Advertisements
Track Severe Weather on mobile